Time;durP1;ratioP1;P1;durP2;ratioP2;P2;SDS_P1;SDS_P2;PMS_P1;PMS_P2;Temp;Humidity;BMP_temperature;BMP_pressure;BME280_temperature;BME280_humidity;BME280_pressure;Samples;Min_cycle;Max_cycle;Signal;HPM_P1;HPM_P2
2021/12/31 00:00:46;;;;;;;11.52;8.13;;;;;;;;;;5075425;28;20025;-76
2021/12/31 00:03:12;;;;;;;10.27;7.55;;;;;;;;;;5074750;28;20037;-72
2021/12/31 00:05:38;;;;;;;14.70;8.10;;;;;;;;;;5075320;28;20024;-81
2021/12/31 00:08:05;;;;;;;13.50;8.65;;;;;;;;;;5074812;28;20028;-77
2021/12/31 00:10:31;;;;;;;10.02;6.90;;;;;;;;;;5075300;28;20033;-79
2021/12/31 00:12:57;;;;;;;14.68;9.68;;;;;;;;;;5075059;28;20438;-78
2021/12/31 00:15:24;;;;;;;12.88;8.10;;;;;;;;;;5074972;28;20055;-77
2021/12/31 00:17:50;;;;;;;12.60;8.02;;;;;;;;;;5075020;28;20070;-74
2021/12/31 00:20:19;;;;;;;10.05;7.15;;;;;;;;;;5074681;28;20028;-80
2021/12/31 00:25:12;;;;;;;11.10;7.57;;;;;;;;;;5073668;28;20053;-73
2021/12/31 00:27:38;;;;;;;12.43;8.05;;;;;;;;;;5073804;28;20091;-74
2021/12/31 00:30:05;;;;;;;11.60;8.52;;;;;;;;;;5073303;28;20081;-75
2021/12/31 00:32:31;;;;;;;12.23;9.18;;;;;;;;;;5073389;28;20024;-80
2021/12/31 00:35:00;;;;;;;14.00;9.15;;;;;;;;;;5073540;28;20029;-78
2021/12/31 00:37:30;;;;;;;12.35;8.80;;;;;;;;;;5073664;28;20364;-75
2021/12/31 00:39:59;;;;;;;14.00;8.75;;;;;;;;;;5073383;28;20083;-79
2021/12/31 00:42:26;;;;;;;12.27;8.20;;;;;;;;;;5073606;28;20095;-77
2021/12/31 00:44:53;;;;;;;12.35;8.32;;;;;;;;;;5073438;28;20028;-78
2021/12/31 00:47:23;;;;;;;14.93;10.05;;;;;;;;;;5073294;28;20035;-79
2021/12/31 00:49:49;;;;;;;12.60;8.68;;;;;;;;;;5073410;28;20076;-75
2021/12/31 00:52:15;;;;;;;13.45;10.27;;;;;;;;;;5073182;28;20082;-76
2021/12/31 00:54:42;;;;;;;12.68;9.23;;;;;;;;;;5072926;28;20063;-76
2021/12/31 00:57:08;;;;;;;14.02;9.32;;;;;;;;;;5072253;28;20059;-77
2021/12/31 00:59:35;;;;;;;13.32;9.18;;;;;;;;;;5072750;28;20016;-78
2021/12/31 01:02:03;;;;;;;11.23;8.35;;;;;;;;;;5072534;28;20074;-78
2021/12/31 01:04:33;;;;;;;13.15;8.52;;;;;;;;;;5070468;28;20029;-79
2021/12/31 01:07:01;;;;;;;12.07;8.45;;;;;;;;;;5073110;28;20103;-79
2021/12/31 01:09:30;;;;;;;12.30;8.52;;;;;;;;;;5072207;28;20035;-80
2021/12/31 01:11:57;;;;;;;11.93;8.63;;;;;;;;;;5069610;28;20032;-77
2021/12/31 01:14:31;;;;;;;13.90;9.07;;;;;;;;;;5072320;28;20123;-77
2021/12/31 01:17:05;;;;;;;12.90;9.23;;;;;;;;;;5069549;28;20017;-78
2021/12/31 01:22:27;;;;;;;12.40;8.23;;;;;;;;;;5069829;28;20047;-74
2021/12/31 01:24:53;;;;;;;12.18;8.32;;;;;;;;;;5026442;28;1310480;-80
2021/12/31 01:27:23;;;;;;;11.25;7.85;;;;;;;;;;5072795;28;20020;-75
2021/12/31 01:29:49;;;;;;;9.55;6.75;;;;;;;;;;5071940;28;20365;-81
2021/12/31 01:32:16;;;;;;;9.27;6.57;;;;;;;;;;5072881;28;20046;-77
2021/12/31 01:34:42;;;;;;;9.98;7.30;;;;;;;;;;5072868;28;20031;-77
2021/12/31 01:37:10;;;;;;;10.25;7.03;;;;;;;;;;5073353;28;20051;-79
2021/12/31 01:39:37;;;;;;;9.02;5.95;;;;;;;;;;5073122;28;20432;-79
2021/12/31 01:42:03;;;;;;;10.98;7.05;;;;;;;;;;5071807;28;20040;-77
2021/12/31 01:44:40;;;;;;;9.52;6.50;;;;;;;;;;5072769;28;20395;-78
2021/12/31 01:47:09;;;;;;;10.48;6.70;;;;;;;;;;5073536;28;20120;-80
2021/12/31 01:49:39;;;;;;;9.50;6.72;;;;;;;;;;5073238;28;20082;-79
2021/12/31 01:52:07;;;;;;;10.73;7.00;;;;;;;;;;5073251;28;20100;-76
2021/12/31 01:54:34;;;;;;;10.23;6.97;;;;;;;;;;5073005;28;20025;-77
2021/12/31 01:57:02;;;;;;;11.07;7.45;;;;;;;;;;5073146;28;20029;-80
2021/12/31 01:59:29;;;;;;;19.75;11.35;;;;;;;;;;5071498;28;20476;-77
2021/12/31 02:01:58;;;;;;;13.95;9.15;;;;;;;;;;5073016;28;20032;-81
2021/12/31 02:04:24;;;;;;;10.70;7.20;;;;;;;;;;5072662;28;20534;-75
2021/12/31 02:06:50;;;;;;;10.40;7.80;;;;;;;;;;5073056;28;20446;-79
2021/12/31 02:09:16;;;;;;;9.30;6.55;;;;;;;;;;5072430;28;20058;-77
2021/12/31 02:11:43;;;;;;;9.45;5.90;;;;;;;;;;5072524;28;20033;-77
2021/12/31 02:14:09;;;;;;;7.97;6.30;;;;;;;;;;5072976;28;20025;-76
2021/12/31 02:16:35;;;;;;;8.70;6.05;;;;;;;;;;5072677;28;20025;-79
2021/12/31 02:19:27;;;;;;;7.80;6.10;;;;;;;;;;5072915;28;20025;-77
2021/12/31 02:21:54;;;;;;;9.27;6.38;;;;;;;;;;5072552;28;20070;-76
2021/12/31 02:24:21;;;;;;;8.18;5.82;;;;;;;;;;5072236;28;20056;-79
2021/12/31 02:26:48;;;;;;;8.68;6.03;;;;;;;;;;5072795;28;20032;-79
2021/12/31 02:29:14;;;;;;;7.75;6.00;;;;;;;;;;5072286;28;20036;-77
2021/12/31 02:31:40;;;;;;;8.32;5.50;;;;;;;;;;5072016;28;20035;-82
2021/12/31 02:34:06;;;;;;;9.20;6.50;;;;;;;;;;5071683;28;20024;-77
2021/12/31 02:36:32;;;;;;;9.60;6.47;;;;;;;;;;5071981;28;20107;-78
2021/12/31 02:39:01;;;;;;;8.25;6.38;;;;;;;;;;5071822;28;20051;-77
2021/12/31 02:41:27;;;;;;;8.23;6.20;;;;;;;;;;5071570;28;20043;-78
2021/12/31 02:43:55;;;;;;;9.15;6.07;;;;;;;;;;5071639;28;20071;-76
2021/12/31 02:46:22;;;;;;;10.38;6.28;;;;;;;;;;5071566;28;20059;-80
2021/12/31 02:48:57;;;;;;;9.00;6.78;;;;;;;;;;5071738;28;20040;-76
2021/12/31 02:51:28;;;;;;;9.23;6.00;;;;;;;;;;5071607;28;20013;-78
2021/12/31 02:53:59;;;;;;;12.63;7.68;;;;;;;;;;5069074;28;20028;-81
2021/12/31 02:56:25;;;;;;;14.93;9.18;;;;;;;;;;5070352;28;20038;-76
2021/12/31 02:58:53;;;;;;;11.95;8.10;;;;;;;;;;5071635;28;20522;-77
2021/12/31 03:01:19;;;;;;;11.50;8.05;;;;;;;;;;5071384;28;20035;-74
2021/12/31 03:03:46;;;;;;;11.85;7.90;;;;;;;;;;5071433;28;20111;-75
2021/12/31 03:06:13;;;;;;;13.10;8.38;;;;;;;;;;5071435;28;20021;-76
2021/12/31 03:08:44;;;;;;;14.68;8.80;;;;;;;;;;5070117;28;20024;-75
2021/12/31 03:11:12;;;;;;;9.25;6.38;;;;;;;;;;5071508;28;20017;-78
2021/12/31 03:13:42;;;;;;;9.10;6.63;;;;;;;;;;5071358;28;20097;-75
2021/12/31 03:16:08;;;;;;;8.40;5.70;;;;;;;;;;5071505;28;20049;-75
2021/12/31 03:18:34;;;;;;;8.55;6.53;;;;;;;;;;5070919;28;20086;-79
2021/12/31 03:21:06;;;;;;;9.30;6.38;;;;;;;;;;5070329;28;20035;-78
2021/12/31 03:23:33;;;;;;;9.73;6.78;;;;;;;;;;5071857;28;20494;-78
2021/12/31 03:25:59;;;;;;;8.50;6.55;;;;;;;;;;5071442;28;20388;-73
2021/12/31 03:28:26;;;;;;;8.43;6.50;;;;;;;;;;5071936;28;20078;-80
2021/12/31 03:30:52;;;;;;;8.93;6.63;;;;;;;;;;5070487;28;20027;-78
2021/12/31 03:33:20;;;;;;;6.07;5.07;;;;;;;;;;5070374;28;20033;-79
2021/12/31 03:35:53;;;;;;;7.97;5.95;;;;;;;;;;5071439;28;20063;-76
2021/12/31 03:38:19;;;;;;;9.20;6.28;;;;;;;;;;5069107;28;20067;-75
2021/12/31 03:40:49;;;;;;;12.30;7.80;;;;;;;;;;5068393;28;20024;-77
2021/12/31 03:43:15;;;;;;;7.53;5.45;;;;;;;;;;5069322;28;20123;-78
2021/12/31 03:45:42;;;;;;;8.68;6.13;;;;;;;;;;5070781;28;20139;-79
2021/12/31 03:48:08;;;;;;;8.73;6.07;;;;;;;;;;5071183;28;20483;-75
2021/12/31 03:50:34;;;;;;;8.75;5.93;;;;;;;;;;5071025;28;20056;-78
2021/12/31 03:53:00;;;;;;;9.05;6.30;;;;;;;;;;5070805;28;20083;-78
2021/12/31 03:55:29;;;;;;;9.07;6.10;;;;;;;;;;5070987;28;20029;-76
2021/12/31 03:57:55;;;;;;;8.30;5.93;;;;;;;;;;5070932;28;20082;-78
2021/12/31 04:00:21;;;;;;;7.55;5.72;;;;;;;;;;5070936;28;20024;-78
2021/12/31 04:02:47;;;;;;;8.32;6.40;;;;;;;;;;5070468;28;20043;-78
2021/12/31 04:05:13;;;;;;;9.77;7.47;;;;;;;;;;5071807;28;20021;-79
2021/12/31 04:07:40;;;;;;;8.40;6.00;;;;;;;;;;5073796;28;20021;-79
2021/12/31 04:10:06;;;;;;;9.63;6.30;;;;;;;;;;5075165;28;20364;-77
2021/12/31 04:12:32;;;;;;;7.32;5.82;;;;;;;;;;5075267;28;20086;-76
2021/12/31 04:14:58;;;;;;;8.55;6.47;;;;;;;;;;5074923;28;20024;-77
2021/12/31 04:17:24;;;;;;;9.13;6.05;;;;;;;;;;5075271;28;20029;-76
2021/12/31 04:19:55;;;;;;;10.02;6.15;;;;;;;;;;5074875;28;20082;-77
2021/12/31 04:22:24;;;;;;;10.63;7.47;;;;;;;;;;5075116;28;20036;-79
2021/12/31 04:27:16;;;;;;;16.80;11.55;;;;;;;;;;5075149;28;20032;-79
2021/12/31 04:29:49;;;;;;;11.77;7.78;;;;;;;;;;5074906;28;20549;-76
2021/12/31 04:32:15;;;;;;;8.40;5.38;;;;;;;;;;5074973;28;20029;-77
2021/12/31 04:34:44;;;;;;;9.88;6.18;;;;;;;;;;5072500;28;20071;-80
2021/12/31 04:37:10;;;;;;;8.18;5.65;;;;;;;;;;5074101;28;20036;-75
2021/12/31 04:39:36;;;;;;;8.02;5.88;;;;;;;;;;5074160;28;20024;-78
2021/12/31 04:42:03;;;;;;;6.40;4.90;;;;;;;;;;5074205;28;20070;-74
2021/12/31 04:44:29;;;;;;;7.95;5.30;;;;;;;;;;5073215;28;20060;-77
2021/12/31 04:46:55;;;;;;;6.88;5.65;;;;;;;;;;5074220;28;20472;-76
2021/12/31 04:49:22;;;;;;;6.82;4.70;;;;;;;;;;5074492;28;20369;-80
2021/12/31 04:51:48;;;;;;;7.40;5.18;;;;;;;;;;5074311;28;20032;-75
2021/12/31 04:54:16;;;;;;;8.77;5.47;;;;;;;;;;5073185;28;20028;-80
2021/12/31 04:56:43;;;;;;;7.85;5.80;;;;;;;;;;5073094;28;20029;-77
2021/12/31 04:59:09;;;;;;;10.52;6.93;;;;;;;;;;5074328;28;20027;-75
2021/12/31 05:01:36;;;;;;;5.97;5.18;;;;;;;;;;5074047;28;20056;-78
2021/12/31 05:04:02;;;;;;;12.93;7.32;;;;;;;;;;5073977;28;20029;-74
2021/12/31 05:06:28;;;;;;;11.68;6.78;;;;;;;;;;5074316;28;20029;-78
2021/12/31 05:08:54;;;;;;;12.55;7.47;;;;;;;;;;5072694;28;20380;-77
2021/12/31 05:11:20;;;;;;;8.88;5.57;;;;;;;;;;5074388;28;20471;-79
2021/12/31 05:13:47;;;;;;;10.63;6.93;;;;;;;;;;5073749;28;20062;-76
2021/12/31 05:16:13;;;;;;;10.57;7.25;;;;;;;;;;5074035;28;20032;-77
2021/12/31 05:18:39;;;;;;;6.90;5.13;;;;;;;;;;5072735;28;20028;-79
2021/12/31 05:21:08;;;;;;;6.53;4.82;;;;;;;;;;5073482;28;20024;-77
2021/12/31 05:23:34;;;;;;;9.35;5.65;;;;;;;;;;5073623;28;20037;-75
2021/12/31 05:26:00;;;;;;;6.85;4.70;;;;;;;;;;5073390;28;20109;-80
2021/12/31 05:28:26;;;;;;;7.22;5.03;;;;;;;;;;5073631;28;20107;-77
2021/12/31 05:30:52;;;;;;;8.38;5.93;;;;;;;;;;5072024;28;20028;-78
2021/12/31 05:33:19;;;;;;;8.13;5.75;;;;;;;;;;5073627;28;20025;-74
2021/12/31 05:35:45;;;;;;;8.40;5.45;;;;;;;;;;5073319;28;20025;-79
2021/12/31 05:38:11;;;;;;;9.30;6.85;;;;;;;;;;5073293;28;20027;-75
2021/12/31 05:40:37;;;;;;;9.73;6.30;;;;;;;;;;5073315;28;20025;-78
2021/12/31 05:43:03;;;;;;;10.30;7.05;;;;;;;;;;5073000;28;20498;-78
2021/12/31 05:45:29;;;;;;;9.90;5.97;;;;;;;;;;5073120;28;20032;-79
2021/12/31 05:47:55;;;;;;;6.75;4.40;;;;;;;;;;5073268;28;20086;-76
2021/12/31 05:53:08;;;;;;;6.93;4.68;;;;;;;;;;5073305;28;20475;-75
2021/12/31 05:55:35;;;;;;;8.43;6.63;;;;;;;;;;5071902;28;20498;-75
2021/12/31 05:58:02;;;;;;;7.85;4.88;;;;;;;;;;5072829;28;20482;-78
2021/12/31 06:00:31;;;;;;;6.72;4.82;;;;;;;;;;5072989;28;20028;-78
2021/12/31 06:02:57;;;;;;;7.05;5.00;;;;;;;;;;5072641;28;20043;-74
2021/12/31 06:05:25;;;;;;;7.72;5.45;;;;;;;;;;5072891;28;20089;-76
2021/12/31 06:07:52;;;;;;;8.95;5.50;;;;;;;;;;5071322;28;20118;-75
2021/12/31 06:10:21;;;;;;;8.45;5.88;;;;;;;;;;5072954;28;20059;-79
2021/12/31 06:12:47;;;;;;;8.65;5.35;;;;;;;;;;5072500;28;20039;-79
2021/12/31 06:15:16;;;;;;;8.20;5.60;;;;;;;;;;5071616;28;20021;-77
2021/12/31 06:17:42;;;;;;;13.60;10.07;;;;;;;;;;5072593;28;20020;-74
2021/12/31 06:20:10;;;;;;;13.02;8.80;;;;;;;;;;5071346;28;20489;-77
2021/12/31 06:22:36;;;;;;;12.43;8.25;;;;;;;;;;5072693;28;20064;-78
2021/12/31 06:25:02;;;;;;;15.30;12.27;;;;;;;;;;5070977;28;20525;-78
2021/12/31 06:27:28;;;;;;;10.75;8.77;;;;;;;;;;5071054;28;20426;-80
2021/12/31 06:29:54;;;;;;;15.90;10.55;;;;;;;;;;5069894;28;20423;-79
2021/12/31 06:32:20;;;;;;;29.20;19.25;;;;;;;;;;5071575;28;20028;-77
2021/12/31 06:34:47;;;;;;;15.50;11.57;;;;;;;;;;5071713;28;20024;-79
2021/12/31 06:37:13;;;;;;;29.75;21.00;;;;;;;;;;5071925;28;20064;-75
2021/12/31 06:39:41;;;;;;;35.20;25.48;;;;;;;;;;5067895;28;20032;-75
2021/12/31 06:42:08;;;;;;;29.90;21.88;;;;;;;;;;5069364;28;20048;-77
2021/12/31 06:44:34;;;;;;;41.00;28.88;;;;;;;;;;5071516;28;20064;-78
2021/12/31 06:47:02;;;;;;;40.15;29.08;;;;;;;;;;5070957;28;20499;-78
2021/12/31 06:49:28;;;;;;;36.00;29.00;;;;;;;;;;5071477;28;20028;-77
2021/12/31 06:51:54;;;;;;;34.15;24.85;;;;;;;;;;5070775;28;20051;-81
2021/12/31 06:54:20;;;;;;;25.23;18.17;;;;;;;;;;5070934;28;20085;-76
2021/12/31 06:56:46;;;;;;;27.17;20.60;;;;;;;;;;5070635;28;20028;-80
2021/12/31 06:59:12;;;;;;;27.00;18.92;;;;;;;;;;5070810;28;20031;-78
2021/12/31 07:01:42;;;;;;;29.60;23.45;;;;;;;;;;5070443;28;20032;-76
2021/12/31 07:04:08;;;;;;;28.48;23.15;;;;;;;;;;5070622;28;20032;-75
2021/12/31 07:06:35;;;;;;;38.55;26.95;;;;;;;;;;5070892;28;20059;-78
2021/12/31 07:09:04;;;;;;;43.97;30.73;;;;;;;;;;5070041;28;20392;-76
2021/12/31 07:11:30;;;;;;;65.55;40.30;;;;;;;;;;5070383;28;20028;-78
2021/12/31 07:13:57;;;;;;;37.92;26.13;;;;;;;;;;5070317;28;20033;-76
2021/12/31 07:16:23;;;;;;;36.00;23.65;;;;;;;;;;5070004;28;20387;-74
2021/12/31 07:18:49;;;;;;;68.65;46.03;;;;;;;;;;5070248;28;20438;-75
2021/12/31 07:21:18;;;;;;;74.45;46.88;;;;;;;;;;5069591;28;20506;-76
2021/12/31 07:23:44;;;;;;;61.42;40.88;;;;;;;;;;5070316;28;20130;-76
2021/12/31 07:26:12;;;;;;;31.27;20.90;;;;;;;;;;5069391;28;20041;-73
2021/12/31 07:28:39;;;;;;;11.13;8.27;;;;;;;;;;5068321;28;20039;-82
2021/12/31 07:31:06;;;;;;;14.77;9.68;;;;;;;;;;5070272;28;20060;-76
2021/12/31 07:33:33;;;;;;;19.98;14.00;;;;;;;;;;5068637;28;20438;-79
2021/12/31 07:36:00;;;;;;;21.75;15.25;;;;;;;;;;5068766;28;20048;-81
2021/12/31 07:38:36;;;;;;;21.05;14.85;;;;;;;;;;5070371;28;20041;-81
2021/12/31 07:41:02;;;;;;;16.63;12.20;;;;;;;;;;5071904;28;20115;-77
2021/12/31 07:43:29;;;;;;;16.80;12.77;;;;;;;;;;5073075;28;20122;-78
2021/12/31 07:45:55;;;;;;;20.60;13.93;;;;;;;;;;5074449;28;20487;-76
2021/12/31 07:48:22;;;;;;;23.88;14.30;;;;;;;;;;5073585;28;20027;-78
2021/12/31 07:50:51;;;;;;;25.55;15.45;;;;;;;;;;5073800;28;20039;-77
2021/12/31 07:53:21;;;;;;;20.05;15.60;;;;;;;;;;5074238;28;20094;-77
2021/12/31 07:55:47;;;;;;;17.27;13.00;;;;;;;;;;5073267;28;20039;-78
2021/12/31 07:58:13;;;;;;;19.77;13.88;;;;;;;;;;5073923;28;20111;-77
2021/12/31 08:00:40;;;;;;;16.92;12.32;;;;;;;;;;5073574;28;20078;-80
2021/12/31 08:03:06;;;;;;;17.52;12.73;;;;;;;;;;5073259;28;20037;-80
2021/12/31 08:05:32;;;;;;;16.83;11.60;;;;;;;;;;5071468;28;20115;-78
2021/12/31 08:08:01;;;;;;;18.33;12.10;;;;;;;;;;5073978;28;20032;-78
2021/12/31 08:10:28;;;;;;;15.90;10.70;;;;;;;;;;5073590;28;20412;-78
2021/12/31 08:12:54;;;;;;;17.75;12.20;;;;;;;;;;5055861;28;20074;-80
2021/12/31 08:15:20;;;;;;;15.75;11.30;;;;;;;;;;5073859;28;20108;-81
2021/12/31 08:17:46;;;;;;;20.80;13.43;;;;;;;;;;5072426;28;20086;-78
2021/12/31 08:20:13;;;;;;;22.77;15.60;;;;;;;;;;5075338;28;20025;-79
2021/12/31 08:22:39;;;;;;;21.33;16.17;;;;;;;;;;5074149;28;20043;-80
2021/12/31 08:25:05;;;;;;;20.00;13.35;;;;;;;;;;5074065;28;20055;-78
2021/12/31 08:27:31;;;;;;;18.88;13.90;;;;;;;;;;5073265;28;20028;-79
2021/12/31 08:29:58;;;;;;;19.95;13.30;;;;;;;;;;5072892;28;20150;-77
2021/12/31 08:32:31;;;;;;;23.00;14.52;;;;;;;;;;5073472;28;20021;-77
2021/12/31 08:34:57;;;;;;;22.42;16.05;;;;;;;;;;5073751;28;20028;-74
2021/12/31 08:37:24;;;;;;;19.15;14.25;;;;;;;;;;5073743;28;20148;-79
2021/12/31 08:39:50;;;;;;;17.83;12.52;;;;;;;;;;5072464;28;20162;-76
2021/12/31 08:42:16;;;;;;;20.83;15.35;;;;;;;;;;5072873;28;20123;-78
2021/12/31 08:44:44;;;;;;;19.27;14.93;;;;;;;;;;5072556;28;20119;-76
2021/12/31 08:47:11;;;;;;;17.85;13.23;;;;;;;;;;5072409;28;20040;-77
2021/12/31 08:49:37;;;;;;;17.23;12.73;;;;;;;;;;5071783;28;20094;-77
2021/12/31 08:52:03;;;;;;;23.20;16.27;;;;;;;;;;5072933;28;20039;-75
2021/12/31 08:54:29;;;;;;;23.52;17.58;;;;;;;;;;5071956;28;20040;-77
2021/12/31 08:56:58;;;;;;;21.05;17.23;;;;;;;;;;5073223;28;20036;-78
2021/12/31 08:59:24;;;;;;;20.77;14.48;;;;;;;;;;5072151;28;20040;-80
2021/12/31 09:01:50;;;;;;;33.05;21.40;;;;;;;;;;5071566;28;20133;-79
2021/12/31 09:04:19;;;;;;;36.95;22.65;;;;;;;;;;5071733;28;20020;-78
2021/12/31 09:06:45;;;;;;;34.35;22.75;;;;;;;;;;5072950;28;20036;-78
2021/12/31 09:09:11;;;;;;;22.08;14.57;;;;;;;;;;5072062;28;20039;-77
2021/12/31 09:11:37;;;;;;;22.48;16.33;;;;;;;;;;5072667;28;20103;-84
2021/12/31 09:14:03;;;;;;;17.50;13.27;;;;;;;;;;5072971;28;20025;-79
2021/12/31 09:16:32;;;;;;;18.00;12.15;;;;;;;;;;5072565;28;20532;-77
2021/12/31 09:18:58;;;;;;;14.90;12.13;;;;;;;;;;5071334;28;20090;-82
2021/12/31 09:21:24;;;;;;;34.95;22.20;;;;;;;;;;5071039;28;20035;-79
2021/12/31 09:23:50;;;;;;;35.67;24.92;;;;;;;;;;5071089;28;20466;-78
2021/12/31 09:26:16;;;;;;;34.63;21.85;;;;;;;;;;5072252;28;20040;-78
2021/12/31 09:28:43;;;;;;;28.98;17.13;;;;;;;;;;5071466;28;20042;-77
2021/12/31 09:31:10;;;;;;;33.72;23.33;;;;;;;;;;5072724;28;20407;-74
2021/12/31 09:33:36;;;;;;;30.33;23.42;;;;;;;;;;5071684;28;20060;-77
2021/12/31 09:36:03;;;;;;;28.80;20.02;;;;;;;;;;5075019;28;20456;-74
2021/12/31 09:38:29;;;;;;;27.85;15.85;;;;;;;;;;5071728;28;20040;-78
2021/12/31 09:40:55;;;;;;;18.73;9.75;;;;;;;;;;5070287;28;20067;-76
2021/12/31 09:43:21;;;;;;;11.18;8.38;;;;;;;;;;5071148;28;20033;-77
2021/12/31 09:45:50;;;;;;;11.18;7.93;;;;;;;;;;5071171;28;20024;-76
2021/12/31 09:48:18;;;;;;;7.78;4.40;;;;;;;;;;5071578;28;20029;-78
2021/12/31 09:50:48;;;;;;;11.45;6.25;;;;;;;;;;5071813;28;20037;-77
2021/12/31 09:53:15;;;;;;;11.77;7.45;;;;;;;;;;5070945;28;20105;-80
2021/12/31 09:55:44;;;;;;;11.02;5.10;;;;;;;;;;5069956;28;20052;-84
2021/12/31 09:58:11;;;;;;;8.27;5.28;;;;;;;;;;5070353;28;20107;-75
2021/12/31 10:00:38;;;;;;;11.40;7.25;;;;;;;;;;5071178;28;20123;-79
2021/12/31 10:03:15;;;;;;;10.35;6.53;;;;;;;;;;5071132;28;20106;-78
2021/12/31 10:05:42;;;;;;;7.18;4.40;;;;;;;;;;5071290;28;20048;-77
2021/12/31 10:08:21;;;;;;;15.85;9.07;;;;;;;;;;5070866;28;20034;-77
2021/12/31 10:11:04;;;;;;;11.50;6.90;;;;;;;;;;5071076;28;20382;-76
2021/12/31 10:13:31;;;;;;;8.55;4.15;;;;;;;;;;5071405;28;20078;-79
2021/12/31 10:15:57;;;;;;;12.02;8.32;;;;;;;;;;5071118;28;20460;-76
2021/12/31 10:18:42;;;;;;;11.05;6.57;;;;;;;;;;5074122;28;20383;-80
2021/12/31 10:21:10;;;;;;;;;;;;;;;;;;5072055;28;20035;-78
2021/12/31 10:23:40;;;;;;;16.38;10.27;;;;;;;;;;5069801;28;19912;-77
2021/12/31 10:26:07;;;;;;;10.73;7.57;;;;;;;;;;5070966;28;20056;-82
2021/12/31 10:28:34;;;;;;;14.00;9.45;;;;;;;;;;5070343;28;20032;-76
2021/12/31 10:31:19;;;;;;;12.30;6.38;;;;;;;;;;5070690;28;20036;-81
2021/12/31 10:33:46;;;;;;;11.48;7.65;;;;;;;;;;5051469;28;20036;-76
2021/12/31 10:36:32;;;;;;;15.45;8.25;;;;;;;;;;5051289;28;20516;-76
2021/12/31 10:38:59;;;;;;;6.55;3.17;;;;;;;;;;5054337;28;20087;-82
2021/12/31 10:41:26;;;;;;;4.25;2.50;;;;;;;;;;5069622;28;20119;-83
2021/12/31 10:43:58;;;;;;;8.25;3.90;;;;;;;;;;5071463;28;20044;-77
2021/12/31 10:46:24;;;;;;;7.22;4.28;;;;;;;;;;5071653;28;20687;-80
2021/12/31 10:48:53;;;;;;;4.72;3.13;;;;;;;;;;5071768;28;20028;-82
2021/12/31 10:51:35;;;;;;;8.20;3.38;;;;;;;;;;5072333;28;20495;-78
2021/12/31 10:54:19;;;;;;;6.32;3.65;;;;;;;;;;5071579;28;20035;-84
2021/12/31 10:56:45;;;;;;;7.03;4.80;;;;;;;;;;5071487;28;20024;-83
2021/12/31 10:59:11;;;;;;;11.85;7.25;;;;;;;;;;5071444;28;20086;-79
2021/12/31 11:01:40;;;;;;;10.65;4.90;;;;;;;;;;5071443;28;20023;-80
2021/12/31 11:04:11;;;;;;;9.57;4.88;;;;;;;;;;5071462;28;20041;-81
2021/12/31 11:06:39;;;;;;;7.47;4.25;;;;;;;;;;5071783;28;20365;-84
2021/12/31 11:09:06;;;;;;;5.68;2.60;;;;;;;;;;5071407;28;20064;-80
2021/12/31 11:11:32;;;;;;;9.57;3.00;;;;;;;;;;5069962;28;20173;-79
2021/12/31 11:14:00;;;;;;;5.47;3.50;;;;;;;;;;5071139;28;20092;-77
2021/12/31 11:16:26;;;;;;;6.57;2.50;;;;;;;;;;5072070;28;20040;-78
2021/12/31 11:18:52;;;;;;;4.25;2.50;;;;;;;;;;5075537;28;20024;-78
2021/12/31 11:21:19;;;;;;;6.03;2.17;;;;;;;;;;5076173;28;20079;-78
2021/12/31 11:23:45;;;;;;;5.38;3.40;;;;;;;;;;5075739;28;20045;-80
2021/12/31 11:26:13;;;;;;;7.95;3.38;;;;;;;;;;5075711;28;20145;-77
2021/12/31 11:28:40;;;;;;;5.13;2.60;;;;;;;;;;5075749;28;20033;-77
2021/12/31 11:31:25;;;;;;;5.32;2.97;;;;;;;;;;5075210;28;20029;-78
2021/12/31 11:33:56;;;;;;;5.57;2.80;;;;;;;;;;5075795;28;20027;-79
2021/12/31 11:36:37;;;;;;;4.13;2.65;;;;;;;;;;5076305;28;20044;-77
2021/12/31 11:39:14;;;;;;;10.20;2.97;;;;;;;;;;5075738;28;20027;-74
2021/12/31 11:41:41;;;;;;;4.53;2.67;;;;;;;;;;5076018;28;20129;-77
2021/12/31 11:44:09;;;;;;;7.88;4.85;;;;;;;;;;5075683;28;20037;-81
2021/12/31 11:46:37;;;;;;;8.55;4.85;;;;;;;;;;5075485;28;20040;-76
2021/12/31 11:49:04;;;;;;;9.40;4.60;;;;;;;;;;5075276;28;20027;-80
2021/12/31 11:51:35;;;;;;;14.50;9.32;;;;;;;;;;5075816;28;20497;-78
2021/12/31 11:54:02;;;;;;;15.90;10.35;;;;;;;;;;5075123;28;20021;-79
2021/12/31 11:56:34;;;;;;;15.43;8.20;;;;;;;;;;5075093;28;20056;-80
2021/12/31 11:59:10;;;;;;;10.07;6.72;;;;;;;;;;5075528;28;20108;-80
2021/12/31 12:01:47;;;;;;;10.48;5.80;;;;;;;;;;5075127;28;20032;-77
2021/12/31 12:04:26;;;;;;;15.63;7.50;;;;;;;;;;5073802;28;20479;-80
2021/12/31 12:06:55;;;;;;;8.10;4.18;;;;;;;;;;5075339;28;20024;-77
2021/12/31 12:09:24;;;;;;;7.93;4.07;;;;;;;;;;5074827;28;20032;-77
2021/12/31 12:12:16;;;;;;;14.30;6.55;;;;;;;;;;5075630;28;20483;-76
2021/12/31 12:14:46;;;;;;;6.78;4.80;;;;;;;;;;5074218;28;20383;-80
2021/12/31 12:17:13;;;;;;;9.57;5.18;;;;;;;;;;5074037;28;20032;-78
2021/12/31 12:19:49;;;;;;;20.52;12.52;;;;;;;;;;5073627;28;20032;-83
2021/12/31 12:22:34;;;;;;;11.93;7.10;;;;;;;;;;5075087;28;20106;-84
2021/12/31 12:25:03;;;;;;;11.38;6.90;;;;;;;;;;5075531;28;20089;-77
2021/12/31 12:27:32;;;;;;;10.73;5.80;;;;;;;;;;5074205;28;20025;-76
2021/12/31 12:30:00;;;;;;;9.13;6.10;;;;;;;;;;5074747;28;20024;-82
2021/12/31 12:35:15;;;;;;;8.18;5.35;;;;;;;;;;5075065;28;20071;-77
2021/12/31 12:37:42;;;;;;;10.60;6.97;;;;;;;;;;5074951;28;20032;-79
2021/12/31 12:40:08;;;;;;;8.32;5.45;;;;;;;;;;5074702;28;20392;-77
2021/12/31 12:42:34;;;;;;;13.30;6.85;;;;;;;;;;5074597;28;20598;-77
2021/12/31 12:45:02;;;;;;;10.25;6.57;;;;;;;;;;5074498;28;20036;-75
2021/12/31 12:47:28;;;;;;;13.18;6.78;;;;;;;;;;5073895;28;20037;-80
2021/12/31 12:49:57;;;;;;;9.30;4.85;;;;;;;;;;5074699;28;20039;-77
2021/12/31 12:52:24;;;;;;;9.93;6.00;;;;;;;;;;5074028;28;20021;-80
2021/12/31 12:55:09;;;;;;;8.85;5.85;;;;;;;;;;5074542;28;20040;-75
2021/12/31 12:57:38;;;;;;;13.13;7.50;;;;;;;;;;5074359;28;20122;-80
2021/12/31 13:00:06;;;;;;;10.48;7.63;;;;;;;;;;5073266;28;20068;-81
2021/12/31 13:02:51;;;;;;;12.07;7.78;;;;;;;;;;5074095;28;20060;-79
2021/12/31 13:05:18;;;;;;;12.38;6.47;;;;;;;;;;5074295;28;20028;-81
2021/12/31 13:07:52;;;;;;;10.27;5.72;;;;;;;;;;5074161;28;20024;-82
2021/12/31 13:10:18;;;;;;;;;;;;;;;;;;5073662;28;20481;-81
2021/12/31 13:12:46;;;;;;;10.55;6.68;;;;;;;;;;5074631;28;19970;-80
2021/12/31 13:15:12;;;;;;;10.07;6.93;;;;;;;;;;5074109;28;20104;-78
2021/12/31 13:17:39;;;;;;;9.65;5.68;;;;;;;;;;5073660;28;20108;-85
2021/12/31 13:20:11;;;;;;;10.20;5.40;;;;;;;;;;5074677;28;20059;-80
2021/12/31 13:22:40;;;;;;;10.00;5.97;;;;;;;;;;5073377;28;20036;-80
2021/12/31 13:25:07;;;;;;;11.50;6.50;;;;;;;;;;5074030;28;20044;-81
2021/12/31 13:27:38;;;;;;;24.88;14.95;;;;;;;;;;5073858;28;20036;-78
2021/12/31 13:30:12;;;;;;;10.00;6.85;;;;;;;;;;5073536;28;20454;-75
2021/12/31 13:32:38;;;;;;;9.90;6.18;;;;;;;;;;5073636;28;20047;-76
2021/12/31 13:35:08;;;;;;;8.88;4.45;;;;;;;;;;5074027;28;20107;-80
2021/12/31 13:37:38;;;;;;;8.18;4.88;;;;;;;;;;5073070;28;20035;-76
2021/12/31 13:40:20;;;;;;;7.85;5.00;;;;;;;;;;5073030;28;20040;-79
2021/12/31 13:43:07;;;;;;;7.95;4.95;;;;;;;;;;5073284;28;20032;-76
2021/12/31 13:45:36;;;;;;;9.07;5.68;;;;;;;;;;5073439;28;20036;-80
2021/12/31 13:48:21;;;;;;;11.32;6.65;;;;;;;;;;5073451;28;20135;-77
2021/12/31 13:50:48;;;;;;;9.63;5.57;;;;;;;;;;5073146;28;20031;-77
2021/12/31 13:53:22;;;;;;;8.45;4.32;;;;;;;;;;5073352;28;20379;-83
2021/12/31 13:55:48;;;;;;;11.20;6.28;;;;;;;;;;5073295;28;20068;-77
2021/12/31 13:58:15;;;;;;;8.80;5.47;;;;;;;;;;5073644;28;20040;-81
2021/12/31 14:00:43;;;;;;;11.10;6.25;;;;;;;;;;5073065;28;20033;-76
2021/12/31 14:03:14;;;;;;;10.00;5.75;;;;;;;;;;5073173;28;20032;-78
2021/12/31 14:06:02;;;;;;;7.97;5.75;;;;;;;;;;5073188;28;20032;-80
2021/12/31 14:11:13;;;;;;;10.05;6.95;;;;;;;;;;5073496;28;20442;-79
2021/12/31 14:13:40;;;;;;;11.48;6.47;;;;;;;;;;5072707;28;20055;-80
2021/12/31 14:16:06;;;;;;;10.05;5.70;;;;;;;;;;5072738;28;20039;-78
2021/12/31 14:18:32;;;;;;;9.32;6.38;;;;;;;;;;5072614;28;20033;-78
2021/12/31 14:20:58;;;;;;;9.85;5.95;;;;;;;;;;5071485;28;20040;-81
2021/12/31 14:23:24;;;;;;;8.27;6.20;;;;;;;;;;5073016;28;20497;-79
2021/12/31 14:25:50;;;;;;;10.18;6.93;;;;;;;;;;5072565;28;20054;-75
2021/12/31 14:28:17;;;;;;;12.80;9.10;;;;;;;;;;5072624;28;20025;-82
2021/12/31 14:30:43;;;;;;;11.35;7.80;;;;;;;;;;5072534;28;20028;-80
2021/12/31 14:33:09;;;;;;;9.70;6.05;;;;;;;;;;5072606;28;20102;-80
2021/12/31 14:35:45;;;;;;;8.13;5.55;;;;;;;;;;5072279;28;20104;-83
2021/12/31 14:38:18;;;;;;;18.90;13.40;;;;;;;;;;5072833;28;20416;-79
2021/12/31 14:40:50;;;;;;;20.50;12.68;;;;;;;;;;5071326;28;20036;-80
2021/12/31 14:43:16;;;;;;;11.65;6.45;;;;;;;;;;5065313;28;20040;-85
2021/12/31 14:45:43;;;;;;;12.30;7.32;;;;;;;;;;5061300;28;20044;-83
2021/12/31 14:48:11;;;;;;;16.45;10.60;;;;;;;;;;5052247;28;20025;-80
2021/12/31 14:50:37;;;;;;;17.48;9.43;;;;;;;;;;5051510;28;20020;-80
2021/12/31 14:53:03;;;;;;;15.90;10.38;;;;;;;;;;5053350;28;20029;-79
2021/12/31 14:55:30;;;;;;;12.50;8.95;;;;;;;;;;5052149;28;20392;-78